Time;durP1;ratioP1;P1;durP2;ratioP2;P2;SDS_P1;SDS_P2;PMS_P1;PMS_P2;Temp;Humidity;BMP_temperature;BMP_pressure;BME280_temperature;BME280_humidity;BME280_pressure;Samples;Min_cycle;Max_cycle;Signal;HPM_P1;HPM_P2
2021/10/18 00:01:00;;;;;;;;;25.75;22.75;;;;;;;;4996504;28;45639;-73
2021/10/18 00:03:25;;;;;;;;;32.00;25.75;;;;;;;;4995685;28;46165;-75
2021/10/18 00:05:50;;;;;;;;;28.75;26.50;;;;;;;;5011010;28;45319;-72
2021/10/18 00:08:15;;;;;;;;;28.25;24.50;;;;;;;;4995708;28;45589;-70
2021/10/18 00:10:41;;;;;;;;;29.50;23.00;;;;;;;;4994455;28;45310;-71
2021/10/18 00:13:06;;;;;;;;;31.25;28.75;;;;;;;;4995286;28;46297;-69
2021/10/18 00:15:31;;;;;;;;;27.25;25.25;;;;;;;;5011074;28;45529;-67
2021/10/18 00:17:59;;;;;;;;;24.25;22.75;;;;;;;;4995718;28;45479;-69
2021/10/18 00:20:25;;;;;;;;;27.25;24.50;;;;;;;;4996017;28;45892;-70
2021/10/18 00:22:50;;;;;;;;;23.50;22.75;;;;;;;;4995359;28;46601;-72
2021/10/18 00:25:17;;;;;;;;;24.50;24.00;;;;;;;;4995342;28;45392;-70
2021/10/18 00:27:42;;;;;;;;;30.00;24.00;;;;;;;;4995514;28;45387;-74
2021/10/18 00:30:08;;;;;;;;;22.75;20.00;;;;;;;;4995813;28;45313;-74
2021/10/18 00:32:34;;;;;;;;;33.50;26.25;;;;;;;;4999554;28;46351;-74
2021/10/18 00:34:59;;;;;;;;;28.75;23.25;;;;;;;;5002158;28;45442;-74
2021/10/18 00:37:24;;;;;;;;;26.50;23.25;;;;;;;;5000592;28;45447;-75
2021/10/18 00:39:49;;;;;;;;;31.00;25.00;;;;;;;;5000702;28;45253;-74
2021/10/18 00:42:14;;;;;;;;;27.75;23.00;;;;;;;;5000355;28;46106;-73
2021/10/18 00:44:41;;;;;;;;;29.25;24.75;;;;;;;;5001983;28;45230;-71
2021/10/18 00:47:06;;;;;;;;;24.50;24.25;;;;;;;;5002115;28;45352;-71
2021/10/18 00:49:31;;;;;;;;;31.50;25.00;;;;;;;;5002731;28;45561;-71
2021/10/18 00:51:58;;;;;;;;;33.25;29.25;;;;;;;;5000242;28;46187;-71
2021/10/18 00:54:23;;;;;;;;;40.50;32.00;;;;;;;;5001480;28;45391;-72
2021/10/18 00:56:49;;;;;;;;;30.75;25.75;;;;;;;;5001507;28;45522;-73
2021/10/18 00:59:14;;;;;;;;;23.50;21.00;;;;;;;;5001839;28;45537;-75
2021/10/18 01:01:40;;;;;;;;;25.50;24.25;;;;;;;;5001320;28;46233;-74
2021/10/18 01:04:06;;;;;;;;;33.00;28.75;;;;;;;;5001784;28;45395;-74
2021/10/18 01:06:31;;;;;;;;;26.75;25.00;;;;;;;;5001941;28;45289;-72
2021/10/18 01:08:56;;;;;;;;;32.00;24.75;;;;;;;;5001968;28;46041;-72
2021/10/18 01:11:22;;;;;;;;;28.00;25.00;;;;;;;;5001285;28;45300;-72
2021/10/18 01:13:47;;;;;;;;;29.50;26.75;;;;;;;;5001555;28;45442;-72
2021/10/18 01:16:14;;;;;;;;;27.75;26.25;;;;;;;;5000060;28;45290;-72
2021/10/18 01:18:40;;;;;;;;;28.75;25.00;;;;;;;;5001631;28;45260;-70
2021/10/18 01:21:05;;;;;;;;;23.25;23.25;;;;;;;;5000479;28;46968;-72
2021/10/18 01:23:30;;;;;;;;;30.75;25.25;;;;;;;;5001270;28;45150;-71
2021/10/18 01:25:55;;;;;;;;;27.00;23.75;;;;;;;;5001522;28;45184;-68
2021/10/18 01:28:21;;;;;;;;;31.25;27.00;;;;;;;;5001578;28;45299;-71
2021/10/18 01:30:46;;;;;;;;;27.50;23.00;;;;;;;;5001044;28;46243;-68
2021/10/18 01:33:11;;;;;;;;;32.50;25.25;;;;;;;;5001315;28;45241;-75
2021/10/18 01:35:38;;;;;;;;;29.75;23.50;;;;;;;;5001714;28;45341;-72
2021/10/18 01:38:03;;;;;;;;;33.25;27.00;;;;;;;;5000358;28;45333;-73
2021/10/18 01:40:28;;;;;;;;;25.50;22.75;;;;;;;;5000920;28;46573;-74
2021/10/18 01:42:54;;;;;;;;;33.75;27.50;;;;;;;;4999928;28;45395;-73
2021/10/18 01:45:20;;;;;;;;;34.50;27.25;;;;;;;;4997410;28;45515;-74
2021/10/18 01:47:45;;;;;;;;;28.25;25.75;;;;;;;;4998031;28;45317;-72
2021/10/18 01:50:12;;;;;;;;;29.00;25.00;;;;;;;;4997846;28;46778;-71
2021/10/18 01:52:38;;;;;;;;;31.00;29.25;;;;;;;;4996751;28;45334;-71
2021/10/18 01:55:03;;;;;;;;;29.75;27.50;;;;;;;;4997785;28;45272;-70
2021/10/18 01:57:28;;;;;;;;;28.25;25.75;;;;;;;;4996350;28;45271;-71
2021/10/18 01:59:54;;;;;;;;;28.50;24.25;;;;;;;;4997277;28;46707;-71
2021/10/18 02:02:19;;;;;;;;;31.00;27.00;;;;;;;;4997591;28;45227;-74
2021/10/18 02:04:45;;;;;;;;;34.25;25.25;;;;;;;;4997726;28;45296;-70
2021/10/18 02:07:10;;;;;;;;;25.75;22.75;;;;;;;;4997916;28;45501;-74
2021/10/18 02:09:36;;;;;;;;;26.25;22.75;;;;;;;;4997820;28;45581;-73
2021/10/18 02:12:01;;;;;;;;;32.50;26.25;;;;;;;;4997630;28;45329;-72
2021/10/18 02:14:26;;;;;;;;;29.00;23.50;;;;;;;;4996302;28;45297;-73
2021/10/18 02:16:51;;;;;;;;;21.75;18.75;;;;;;;;4996443;28;45434;-75
2021/10/18 02:19:16;;;;;;;;;30.25;26.50;;;;;;;;4997353;28;45403;-71
2021/10/18 02:21:42;;;;;;;;;30.50;26.50;;;;;;;;4997523;28;45435;-68
2021/10/18 02:24:07;;;;;;;;;31.00;27.00;;;;;;;;4997427;28;45426;-70
2021/10/18 02:26:32;;;;;;;;;30.00;24.50;;;;;;;;4997459;28;45304;-74
2021/10/18 02:28:57;;;;;;;;;24.00;22.50;;;;;;;;4997033;28;45564;-73
2021/10/18 02:31:23;;;;;;;;;32.00;26.00;;;;;;;;4996998;28;45338;-72
2021/10/18 02:33:48;;;;;;;;;32.25;24.00;;;;;;;;4997284;28;45368;-68
2021/10/18 02:36:13;;;;;;;;;26.25;23.75;;;;;;;;4997223;28;45395;-70
2021/10/18 02:38:39;;;;;;;;;30.00;25.00;;;;;;;;4996005;28;48067;-68
2021/10/18 02:41:05;;;;;;;;;32.25;24.75;;;;;;;;4996932;28;45457;-67
2021/10/18 02:43:30;;;;;;;;;28.75;25.00;;;;;;;;4997006;28;45340;-72
2021/10/18 02:45:55;;;;;;;;;29.50;24.50;;;;;;;;4996917;28;45314;-73
2021/10/18 02:48:20;;;;;;;;;28.50;25.00;;;;;;;;4995497;28;48181;-72
2021/10/18 02:50:46;;;;;;;;;26.50;24.50;;;;;;;;4997177;28;45453;-73
2021/10/18 02:53:11;;;;;;;;;31.25;26.00;;;;;;;;4995889;28;45320;-73
2021/10/18 02:55:36;;;;;;;;;25.50;23.25;;;;;;;;4997070;28;45229;-71
2021/10/18 02:58:01;;;;;;;;;30.50;28.50;;;;;;;;4996578;28;45402;-76
2021/10/18 03:00:27;;;;;;;;;31.50;25.25;;;;;;;;4996760;28;45510;-72
2021/10/18 03:02:52;;;;;;;;;29.25;28.25;;;;;;;;4996872;28;45167;-73
2021/10/18 03:05:17;;;;;;;;;31.00;28.50;;;;;;;;4996880;28;45514;-73
2021/10/18 03:07:43;;;;;;;;;34.50;26.75;;;;;;;;4996821;28;45228;-72
2021/10/18 03:10:08;;;;;;;;;30.25;25.50;;;;;;;;4996915;28;45253;-75
2021/10/18 03:12:34;;;;;;;;;29.00;26.00;;;;;;;;4996889;28;45292;-74
2021/10/18 03:14:59;;;;;;;;;26.25;24.00;;;;;;;;4996926;28;45220;-71
2021/10/18 03:17:25;;;;;;;;;31.00;25.25;;;;;;;;4996555;28;46075;-73
2021/10/18 03:19:50;;;;;;;;;28.50;26.00;;;;;;;;4996614;28;45387;-73
2021/10/18 03:22:16;;;;;;;;;26.00;22.75;;;;;;;;4996523;28;45247;-74
2021/10/18 03:24:41;;;;;;;;;25.50;23.00;;;;;;;;4995775;28;45424;-77
2021/10/18 03:27:06;;;;;;;;;30.00;27.50;;;;;;;;4996404;28;46261;-77
2021/10/18 03:29:31;;;;;;;;;27.00;23.50;;;;;;;;4995087;28;45930;-76
2021/10/18 03:31:56;;;;;;;;;32.75;27.25;;;;;;;;4995436;28;45270;-77
2021/10/18 03:34:22;;;;;;;;;31.50;25.00;;;;;;;;4996796;28;45324;-76
2021/10/18 03:36:47;;;;;;;;;21.00;21.00;;;;;;;;4997095;28;46349;-75
2021/10/18 03:39:12;;;;;;;;;22.50;22.50;;;;;;;;4997392;28;45396;-76
2021/10/18 03:41:37;;;;;;;;;26.75;24.75;;;;;;;;4997940;28;45430;-76
2021/10/18 03:44:03;;;;;;;;;32.75;25.25;;;;;;;;4996706;28;45293;-76
2021/10/18 03:46:28;;;;;;;;;31.00;26.50;;;;;;;;4996170;28;46153;-77
2021/10/18 03:48:53;;;;;;;;;28.75;26.25;;;;;;;;4995120;28;45326;-72
2021/10/18 03:51:18;;;;;;;;;23.25;19.75;;;;;;;;4996375;28;45340;-69
2021/10/18 03:53:44;;;;;;;;;32.25;29.75;;;;;;;;4996739;28;45471;-68
2021/10/18 03:56:09;;;;;;;;;28.75;27.25;;;;;;;;5011255;28;47464;-74
2021/10/18 03:58:34;;;;;;;;;33.25;28.25;;;;;;;;4996436;28;45268;-76
2021/10/18 04:00:59;;;;;;;;;26.25;24.25;;;;;;;;4995114;28;45437;-77
2021/10/18 04:03:24;;;;;;;;;30.25;26.00;;;;;;;;4995505;28;45441;-77
2021/10/18 04:05:50;;;;;;;;;24.25;22.50;;;;;;;;4995574;28;45340;-77
2021/10/18 04:08:15;;;;;;;;;28.50;26.25;;;;;;;;4998166;28;45460;-75
2021/10/18 04:10:40;;;;;;;;;24.25;21.50;;;;;;;;4997846;28;45403;-73
2021/10/18 04:13:05;;;;;;;;;24.75;23.25;;;;;;;;4996651;28;45285;-76
2021/10/18 04:15:31;;;;;;;;;30.00;24.00;;;;;;;;4995912;28;45321;-74
2021/10/18 04:17:56;;;;;;;;;27.00;26.75;;;;;;;;4996311;28;45237;-74
2021/10/18 04:20:21;;;;;;;;;31.75;25.75;;;;;;;;4996142;28;45429;-72
2021/10/18 04:22:47;;;;;;;;;26.25;25.50;;;;;;;;4994508;28;45705;-69
2021/10/18 04:25:16;;;;;;;;;26.25;21.75;;;;;;;;4995746;28;45356;-72
2021/10/18 04:27:42;;;;;;;;;28.00;23.50;;;;;;;;5010482;28;45416;-73
2021/10/18 04:30:07;;;;;;;;;28.50;25.25;;;;;;;;4995749;28;45343;-73
2021/10/18 04:32:32;;;;;;;;;39.50;27.25;;;;;;;;4995959;28;45538;-74
2021/10/18 04:34:58;;;;;;;;;30.50;25.75;;;;;;;;4995160;28;45335;-73
2021/10/18 04:37:23;;;;;;;;;30.50;25.75;;;;;;;;4995319;28;45353;-75
2021/10/18 04:39:48;;;;;;;;;27.50;22.50;;;;;;;;4994344;28;45449;-73
2021/10/18 04:42:14;;;;;;;;;32.50;21.00;;;;;;;;4994878;28;45386;-71
2021/10/18 04:44:39;;;;;;;;;27.75;25.75;;;;;;;;4994844;28;46482;-71
2021/10/18 04:47:04;;;;;;;;;26.75;24.25;;;;;;;;4995285;28;45394;-72
2021/10/18 04:49:30;;;;;;;;;25.00;23.25;;;;;;;;4995161;28;45359;-70
2021/10/18 04:51:55;;;;;;;;;30.75;26.25;;;;;;;;4995574;28;45291;-72
2021/10/18 04:54:20;;;;;;;;;28.75;25.75;;;;;;;;4995296;28;46302;-73
2021/10/18 04:56:45;;;;;;;;;34.75;27.50;;;;;;;;5010912;28;45862;-74
2021/10/18 04:59:10;;;;;;;;;24.75;21.00;;;;;;;;4995540;28;45498;-70
2021/10/18 05:01:36;;;;;;;;;25.25;23.25;;;;;;;;4995469;28;45512;-72
2021/10/18 05:04:01;;;;;;;;;32.50;25.50;;;;;;;;4993541;28;46616;-69
2021/10/18 05:06:26;;;;;;;;;33.50;25.25;;;;;;;;4994921;28;45375;-67
2021/10/18 05:08:53;;;;;;;;;26.00;24.00;;;;;;;;4994946;28;45304;-73
2021/10/18 05:11:19;;;;;;;;;27.00;26.25;;;;;;;;4994114;28;45555;-72
2021/10/18 05:13:44;;;;;;;;;27.00;25.75;;;;;;;;4994702;28;45699;-71
2021/10/18 05:16:09;;;;;;;;;31.75;28.50;;;;;;;;4994769;28;45170;-68
2021/10/18 05:18:35;;;;;;;;;32.50;26.00;;;;;;;;4995334;28;45342;-71
2021/10/18 05:21:03;;;;;;;;;26.00;24.25;;;;;;;;4998619;28;45385;-70
2021/10/18 05:23:28;;;;;;;;;30.00;26.75;;;;;;;;4996751;28;47913;-72
2021/10/18 05:25:54;;;;;;;;;25.25;24.25;;;;;;;;4998173;28;45403;-73
2021/10/18 05:28:19;;;;;;;;;29.25;25.75;;;;;;;;4998240;28;45316;-69
2021/10/18 05:30:44;;;;;;;;;30.50;26.00;;;;;;;;4998532;28;45310;-70
2021/10/18 05:33:09;;;;;;;;;28.25;25.75;;;;;;;;4997873;28;45667;-69
2021/10/18 05:35:36;;;;;;;;;24.25;23.50;;;;;;;;4998367;28;45253;-70
2021/10/18 05:38:02;;;;;;;;;26.00;23.50;;;;;;;;4996677;28;45269;-68
2021/10/18 05:40:28;;;;;;;;;32.75;26.25;;;;;;;;4997993;28;45698;-72
2021/10/18 05:42:53;;;;;;;;;33.25;30.50;;;;;;;;4997878;28;45943;-72
2021/10/18 05:45:19;;;;;;;;;26.50;24.00;;;;;;;;4998398;28;45282;-73
2021/10/18 05:47:52;;;;;;;;;28.00;25.00;;;;;;;;4997904;28;45221;-68
2021/10/18 05:50:17;;;;;;;;;28.50;27.00;;;;;;;;4998323;28;45266;-73
2021/10/18 05:52:42;;;;;;;;;27.00;23.00;;;;;;;;4996017;28;47168;-70
2021/10/18 05:55:07;;;;;;;;;28.25;25.50;;;;;;;;4997487;28;45282;-73
2021/10/18 05:57:43;;;;;;;;;25.75;24.00;;;;;;;;4997939;28;45436;-72
2021/10/18 06:00:09;;;;;;;;;28.75;25.00;;;;;;;;4998310;28;45422;-74
2021/10/18 06:02:34;;;;;;;;;27.25;26.25;;;;;;;;4997728;28;45215;-74
2021/10/18 06:04:59;;;;;;;;;26.00;22.75;;;;;;;;4997294;28;45290;-71
2021/10/18 06:07:25;;;;;;;;;30.50;25.50;;;;;;;;4998035;28;45324;-75
2021/10/18 06:09:50;;;;;;;;;29.25;27.75;;;;;;;;4996792;28;45654;-69
2021/10/18 06:12:15;;;;;;;;;30.25;25.25;;;;;;;;4997396;28;46618;-72
2021/10/18 06:14:40;;;;;;;;;29.25;29.25;;;;;;;;4996191;28;45480;-69
2021/10/18 06:17:05;;;;;;;;;29.25;25.25;;;;;;;;4997644;28;45214;-68
2021/10/18 06:19:31;;;;;;;;;27.50;26.75;;;;;;;;4997741;28;45154;-69
2021/10/18 06:21:56;;;;;;;;;29.00;27.25;;;;;;;;4997310;28;46608;-69
2021/10/18 06:24:21;;;;;;;;;34.25;31.25;;;;;;;;4997555;28;45362;-72
2021/10/18 06:26:46;;;;;;;;;36.50;32.00;;;;;;;;4997334;28;45441;-68
2021/10/18 06:29:12;;;;;;;;;27.00;24.50;;;;;;;;4996909;28;45466;-72
2021/10/18 06:31:37;;;;;;;;;27.00;24.75;;;;;;;;4996914;28;46447;-74
2021/10/18 06:34:02;;;;;;;;;28.75;25.50;;;;;;;;4997147;28;45353;-74
2021/10/18 06:36:27;;;;;;;;;22.00;21.50;;;;;;;;4997251;28;45444;-68
2021/10/18 06:38:53;;;;;;;;;25.00;20.25;;;;;;;;4997692;28;45388;-69
2021/10/18 06:41:18;;;;;;;;;29.25;26.25;;;;;;;;4997089;28;45772;-71
2021/10/18 06:43:43;;;;;;;;;34.00;26.00;;;;;;;;4995547;28;45920;-69
2021/10/18 06:46:09;;;;;;;;;31.25;27.75;;;;;;;;4997224;28;45333;-69
2021/10/18 06:48:36;;;;;;;;;30.75;28.75;;;;;;;;4997351;28;45451;-72
2021/10/18 06:51:02;;;;;;;;;27.50;24.75;;;;;;;;4995533;28;46290;-69
2021/10/18 06:53:33;;;;;;;;;24.75;23.00;;;;;;;;4996973;28;45300;-71
2021/10/18 06:56:00;;;;;;;;;32.50;29.75;;;;;;;;4996916;28;45328;-73
2021/10/18 06:58:26;;;;;;;;;34.00;27.25;;;;;;;;4997219;28;45677;-73
2021/10/18 07:00:52;;;;;;;;;32.25;24.75;;;;;;;;4997584;28;45308;-75
2021/10/18 07:03:17;;;;;;;;;28.75;25.75;;;;;;;;5012033;28;45720;-72
2021/10/18 07:05:42;;;;;;;;;27.25;24.25;;;;;;;;4995211;28;45430;-72
2021/10/18 07:08:08;;;;;;;;;35.00;30.25;;;;;;;;4997121;28;45321;-67
2021/10/18 07:10:33;;;;;;;;;39.00;31.00;;;;;;;;4997736;28;45454;-77
2021/10/18 07:12:58;;;;;;;;;30.50;27.75;;;;;;;;4996771;28;45268;-71
2021/10/18 07:15:23;;;;;;;;;27.75;26.00;;;;;;;;4997598;28;45318;-69
2021/10/18 07:17:50;;;;;;;;;29.75;25.25;;;;;;;;4997801;28;45237;-67
2021/10/18 07:20:15;;;;;;;;;32.25;26.25;;;;;;;;4998197;28;46114;-76
2021/10/18 07:22:44;;;;;;;;;34.75;27.25;;;;;;;;4995769;28;45316;-72
2021/10/18 07:25:11;;;;;;;;;33.75;28.50;;;;;;;;4995551;28;45312;-68
2021/10/18 07:27:37;;;;;;;;;31.25;28.00;;;;;;;;4996167;28;45236;-69
2021/10/18 07:30:02;;;;;;;;;35.00;30.00;;;;;;;;4996144;28;46624;-69
2021/10/18 07:32:28;;;;;;;;;35.50;29.75;;;;;;;;4996582;28;45347;-69
2021/10/18 07:34:56;;;;;;;;;31.00;28.25;;;;;;;;4996822;28;45245;-68
2021/10/18 07:37:26;;;;;;;;;26.75;23.75;;;;;;;;4996290;28;45530;-68
2021/10/18 07:39:51;;;;;;;;;30.50;28.50;;;;;;;;4995969;28;45401;-69
2021/10/18 07:42:16;;;;;;;;;32.75;24.00;;;;;;;;4995055;28;45213;-69
2021/10/18 07:44:41;;;;;;;;;38.75;31.25;;;;;;;;4995785;28;45296;-69
2021/10/18 07:47:07;;;;;;;;;36.50;30.00;;;;;;;;4996503;28;45528;-69
2021/10/18 07:49:36;;;;;;;;;32.50;26.75;;;;;;;;4995573;28;45795;-70
2021/10/18 07:52:02;;;;;;;;;31.25;28.25;;;;;;;;4995591;28;45498;-69
2021/10/18 07:54:29;;;;;;;;;29.25;28.00;;;;;;;;4995870;28;45362;-69
2021/10/18 07:56:55;;;;;;;;;30.75;28.75;;;;;;;;4996129;28;45410;-69
2021/10/18 07:59:20;;;;;;;;;37.75;30.25;;;;;;;;4995452;28;45517;-68
2021/10/18 08:01:45;;;;;;;;;31.75;28.50;;;;;;;;4995491;28;45389;-68
2021/10/18 08:04:11;;;;;;;;;29.50;27.50;;;;;;;;4995588;28;45329;-69
2021/10/18 08:06:36;;;;;;;;;34.00;29.00;;;;;;;;4995673;28;45417;-68
2021/10/18 08:09:02;;;;;;;;;29.75;28.50;;;;;;;;4995386;28;45491;-68
2021/10/18 08:11:27;;;;;;;;;30.00;28.00;;;;;;;;4995807;28;45292;-68
2021/10/18 08:13:52;;;;;;;;;28.25;26.75;;;;;;;;4994386;28;45327;-68
2021/10/18 08:16:18;;;;;;;;;33.00;29.25;;;;;;;;4994359;28;45223;-69
2021/10/18 08:18:43;;;;;;;;;34.00;29.50;;;;;;;;4995468;28;45294;-68
2021/10/18 08:21:10;;;;;;;;;35.00;30.75;;;;;;;;4995409;28;45369;-68
2021/10/18 08:23:35;;;;;;;;;34.00;29.75;;;;;;;;4995381;28;45230;-68
2021/10/18 08:26:01;;;;;;;;;32.50;29.75;;;;;;;;4995619;28;45495;-71
2021/10/18 08:28:26;;;;;;;;;31.25;31.00;;;;;;;;4993699;28;45963;-69
2021/10/18 08:30:52;;;;;;;;;34.00;27.50;;;;;;;;4995291;28;45559;-68
2021/10/18 08:33:17;;;;;;;;;36.75;30.75;;;;;;;;4993639;28;45420;-69
2021/10/18 08:35:42;;;;;;;;;29.50;26.75;;;;;;;;4995407;28;45391;-69
2021/10/18 08:38:17;;;;;;;;;31.50;29.75;;;;;;;;4994557;28;45363;-69
2021/10/18 08:41:01;;;;;;;;;32.00;26.25;;;;;;;;4993323;28;45366;-69
2021/10/18 08:45:52;;;;;;;;;51.75;42.25;;;;;;;;4995052;28;45448;-68
2021/10/18 08:48:18;;;;;;;;;28.00;26.25;;;;;;;;4994682;28;46235;-69
2021/10/18 08:50:43;;;;;;;;;36.25;30.50;;;;;;;;4994873;28;45650;-68
2021/10/18 08:53:09;;;;;;;;;32.25;27.50;;;;;;;;4996169;28;45330;-69
2021/10/18 08:55:36;;;;;;;;;36.00;30.75;;;;;;;;4999034;28;45330;-70
2021/10/18 08:58:01;;;;;;;;;31.25;28.25;;;;;;;;4997261;28;46199;-68
2021/10/18 09:00:37;;;;;;;;;30.50;28.50;;;;;;;;4998905;28;45303;-69
2021/10/18 09:03:13;;;;;;;;;29.25;27.00;;;;;;;;4997252;28;45345;-68
2021/10/18 09:05:38;;;;;;;;;36.00;29.00;;;;;;;;4998521;28;45250;-69
2021/10/18 09:08:04;;;;;;;;;42.75;34.00;;;;;;;;4998153;28;46294;-69
2021/10/18 09:10:29;;;;;;;;;34.00;29.50;;;;;;;;4998372;28;45259;-69
2021/10/18 09:13:07;;;;;;;;;33.25;30.25;;;;;;;;4998117;28;45222;-68
2021/10/18 09:15:32;;;;;;;;;26.00;20.50;;;;;;;;4998381;28;45427;-69
2021/10/18 09:17:59;;;;;;;;;34.25;30.25;;;;;;;;4998331;28;46194;-67
2021/10/18 09:20:24;;;;;;;;;28.25;27.75;;;;;;;;4996660;28;45338;-69
2021/10/18 09:22:50;;;;;;;;;29.75;25.50;;;;;;;;4997993;28;45400;-68
2021/10/18 09:25:40;;;;;;;;;27.25;22.75;;;;;;;;4996593;28;45535;-70
2021/10/18 09:28:09;;;;;;;;;30.75;25.50;;;;;;;;4997586;28;46498;-69
2021/10/18 09:30:36;;;;;;;;;32.50;27.50;;;;;;;;4997644;28;45308;-69
2021/10/18 09:33:02;;;;;;;;;34.75;29.50;;;;;;;;4998004;28;45406;-69
2021/10/18 09:35:27;;;;;;;;;35.00;29.00;;;;;;;;4996582;28;45242;-68
2021/10/18 09:37:53;;;;;;;;;30.25;27.00;;;;;;;;4997571;28;45402;-69
2021/10/18 09:40:31;;;;;;;;;29.00;28.25;;;;;;;;4997625;28;45260;-69
2021/10/18 09:43:01;;;;;;;;;28.75;26.00;;;;;;;;4997738;28;45392;-69
2021/10/18 09:45:27;;;;;;;;;32.00;29.00;;;;;;;;4996167;28;45416;-68
2021/10/18 10:52:33;;;;;;;;;35.50;30.25;;;;;;;;4997073;28;45339;-69
2021/10/18 10:55:16;;;;;;;;;37.25;30.25;;;;;;;;4997178;28;45560;-70
2021/10/18 10:57:41;;;;;;;;;33.75;31.25;;;;;;;;4996956;28;45368;-70
2021/10/18 11:00:07;;;;;;;;;32.50;27.75;;;;;;;;4996810;28;45427;-71
2021/10/18 11:02:34;;;;;;;;;35.75;28.00;;;;;;;;4997546;28;45518;-70
2021/10/18 11:04:59;;;;;;;;;39.00;32.25;;;;;;;;4996404;28;46132;-69
2021/10/18 11:07:34;;;;;;;;;42.75;32.75;;;;;;;;4995377;28;45336;-70
2021/10/18 11:09:59;;;;;;;;;29.25;26.50;;;;;;;;4995247;28;45409;-70
2021/10/18 11:12:24;;;;;;;;;33.50;28.50;;;;;;;;4996297;28;45538;-69
2021/10/18 11:14:50;;;;;;;;;32.25;28.75;;;;;;;;4995758;28;46413;-68
2021/10/18 11:17:15;;;;;;;;;37.00;28.00;;;;;;;;4996158;28;45359;-69
2021/10/18 11:19:50;;;;;;;;;31.25;29.50;;;;;;;;4996359;28;45281;-68
2021/10/18 11:22:23;;;;;;;;;36.75;28.25;;;;;;;;4996289;28;45349;-68
2021/10/18 11:24:48;;;;;;;;;28.25;26.75;;;;;;;;4995797;28;45434;-69
2021/10/18 11:27:14;;;;;;;;;29.25;26.75;;;;;;;;4995739;28;45415;-70
2021/10/18 11:29:39;;;;;;;;;28.50;28.50;;;;;;;;4996031;28;45310;-70
2021/10/18 11:32:08;;;;;;;;;26.00;25.50;;;;;;;;4996460;28;45380;-68
2021/10/18 11:34:34;;;;;;;;;31.75;27.75;;;;;;;;4996206;28;45442;-68
2021/10/18 11:36:59;;;;;;;;;33.75;29.50;;;;;;;;4995702;28;45241;-68
2021/10/18 11:39:26;;;;;;;;;28.75;27.25;;;;;;;;4995876;28;45261;-69
2021/10/18 11:42:02;;;;;;;;;29.50;26.75;;;;;;;;4995934;28;45496;-68
2021/10/18 11:44:47;;;;;;;;;29.75;25.50;;;;;;;;4993943;28;47388;-68
2021/10/18 11:47:29;;;;;;;;;33.00;28.25;;;;;;;;4995548;28;45380;-69
2021/10/18 11:50:09;;;;;;;;;29.25;25.50;;;;;;;;4993782;28;45397;-69
2021/10/18 11:52:45;;;;;;;;;33.75;29.50;;;;;;;;4995909;28;45576;-69
2021/10/18 11:55:13;;;;;;;;;30.25;27.00;;;;;;;;4995389;28;46167;-68
2021/10/18 11:57:39;;;;;;;;;30.25;26.50;;;;;;;;4995717;28;45309;-69
2021/10/18 12:00:07;;;;;;;;;30.00;28.25;;;;;;;;5011013;28;45455;-68
2021/10/18 12:02:33;;;;;;;;;30.50;27.25;;;;;;;;4995775;28;45362;-68
2021/10/18 12:04:59;;;;;;;;;27.50;25.00;;;;;;;;4995364;28;46421;-69
2021/10/18 12:07:40;;;;;;;;;27.00;25.00;;;;;;;;4995429;28;45339;-70
2021/10/18 12:10:15;;;;;;;;;30.00;27.25;;;;;;;;4995647;28;45273;-69
2021/10/18 12:12:58;;;;;;;;;28.50;26.00;;;;;;;;4995806;28;45514;-68
2021/10/18 12:15:23;;;;;;;;;30.00;26.00;;;;;;;;4995463;28;46358;-69
2021/10/18 12:17:48;;;;;;;;;20.50;20.00;;;;;;;;4995677;28;45312;-68
2021/10/18 12:20:14;;;;;;;;;22.50;21.75;;;;;;;;4977631;28;45304;-69
2021/10/18 12:22:58;;;;;;;;;25.50;21.75;;;;;;;;4995983;28;45708;-68
2021/10/18 12:25:23;;;;;;;;;24.00;24.00;;;;;;;;4995131;28;46368;-68
2021/10/18 12:27:49;;;;;;;;;23.25;22.50;;;;;;;;4993015;28;45349;-70
2021/10/18 12:30:32;;;;;;;;;26.75;23.00;;;;;;;;4995552;28;45231;-69
2021/10/18 12:33:27;;;;;;;;;25.25;19.25;;;;;;;;4995637;28;45712;-69
2021/10/18 12:35:57;;;;;;;;;26.75;23.50;;;;;;;;4990034;28;45266;-69
2021/10/18 12:38:24;;;;;;;;;25.25;21.50;;;;;;;;4995053;28;45479;-69
2021/10/18 12:40:49;;;;;;;;;19.75;19.75;;;;;;;;4995171;28;45300;-68
2021/10/18 12:43:27;;;;;;;;;23.75;18.75;;;;;;;;4993805;28;45602;-69
2021/10/18 12:45:52;;;;;;;;;20.00;17.50;;;;;;;;4995001;28;45361;-69
2021/10/18 12:48:23;;;;;;;;;29.50;24.00;;;;;;;;4995143;28;45194;-69
2021/10/18 12:50:49;;;;;;;;;25.25;24.25;;;;;;;;4995571;28;45523;-70
2021/10/18 12:53:30;;;;;;;;;25.25;21.25;;;;;;;;4993841;28;45619;-68
2021/10/18 12:55:55;;;;;;;;;25.00;21.75;;;;;;;;4995150;28;46076;-69
2021/10/18 12:58:22;;;;;;;;;24.75;24.00;;;;;;;;4995246;28;45394;-68
2021/10/18 13:00:47;;;;;;;;;21.00;19.25;;;;;;;;4995014;28;45379;-68
2021/10/18 13:03:12;;;;;;;;;17.75;17.50;;;;;;;;4993929;28;45342;-69
2021/10/18 13:05:38;;;;;;;;;24.25;22.25;;;;;;;;4993742;28;46610;-71
2021/10/18 13:08:04;;;;;;;;;22.25;22.00;;;;;;;;4994956;28;45407;-69
2021/10/18 13:10:35;;;;;;;;;23.75;20.75;;;;;;;;4994848;28;45365;-69
2021/10/18 13:13:05;;;;;;;;;23.25;22.00;;;;;;;;4995350;28;45665;-69
2021/10/18 13:15:30;;;;;;;;;15.25;12.50;;;;;;;;4993546;28;48057;-69
2021/10/18 13:17:56;;;;;;;;;29.50;26.25;;;;;;;;4993369;28;45435;-69
2021/10/18 13:20:25;;;;;;;;;22.00;20.00;;;;;;;;4995008;28;45333;-69
2021/10/18 13:22:55;;;;;;;;;29.00;24.50;;;;;;;;4994974;28;45221;-68
2021/10/18 13:25:21;;;;;;;;;23.00;21.25;;;;;;;;4994067;28;46347;-68
2021/10/18 13:27:47;;;;;;;;;22.50;22.25;;;;;;;;4994483;28;45376;-68
2021/10/18 13:30:12;;;;;;;;;27.00;22.75;;;;;;;;4994864;28;45327;-68
2021/10/18 13:32:39;;;;;;;;;25.50;22.50;;;;;;;;4994813;28;45395;-69
2021/10/18 13:35:06;;;;;;;;;22.00;22.00;;;;;;;;4994240;28;45278;-67
2021/10/18 13:37:31;;;;;;;;;20.75;20.75;;;;;;;;4994493;28;45273;-70
2021/10/18 13:39:56;;;;;;;;;27.25;24.00;;;;;;;;4995595;28;45231;-68
2021/10/18 13:42:22;;;;;;;;;18.50;18.50;;;;;;;;4998029;28;45220;-68
2021/10/18 13:44:47;;;;;;;;;22.50;19.25;;;;;;;;4997181;28;46087;-69
2021/10/18 13:47:12;;;;;;;;;18.00;15.75;;;;;;;;4997594;28;45352;-69
2021/10/18 13:49:37;;;;;;;;;21.75;19.50;;;;;;;;4997670;28;45419;-69
2021/10/18 13:52:03;;;;;;;;;18.25;16.50;;;;;;;;4997790;28;45580;-69
2021/10/18 13:54:28;;;;;;;;;16.25;15.75;;;;;;;;4997447;28;45407;-69
2021/10/18 13:56:54;;;;;;;;;20.50;19.50;;;;;;;;4997549;28;45353;-69
2021/10/18 13:59:19;;;;;;;;;28.25;21.00;;;;;;;;4997756;28;45308;-69
2021/10/18 14:01:46;;;;;;;;;20.25;16.50;;;;;;;;4998567;28;45229;-69
2021/10/18 14:04:12;;;;;;;;;18.50;18.00;;;;;;;;4997677;28;46332;-68
2021/10/18 14:06:37;;;;;;;;;20.75;18.00;;;;;;;;4997520;28;45280;-69
2021/10/18 14:09:02;;;;;;;;;15.75;15.00;;;;;;;;4997421;28;45297;-68
2021/10/18 14:11:28;;;;;;;;;17.75;16.25;;;;;;;;4997524;28;45391;-69
2021/10/18 14:13:53;;;;;;;;;19.25;16.25;;;;;;;;4997022;28;45419;-70
2021/10/18 14:16:18;;;;;;;;;14.00;13.25;;;;;;;;4997170;28;45269;-68
2021/10/18 14:18:43;;;;;;;;;17.00;14.00;;;;;;;;4997600;28;45264;-68
2021/10/18 14:21:09;;;;;;;;;18.50;17.00;;;;;;;;4997728;28;45504;-69
2021/10/18 14:23:34;;;;;;;;;20.75;16.25;;;;;;;;4997144;28;45931;-69
2021/10/18 14:26:00;;;;;;;;;17.75;16.00;;;;;;;;4996821;28;45218;-68
2021/10/18 14:28:26;;;;;;;;;18.25;17.00;;;;;;;;4996898;28;45297;-68
2021/10/18 14:30:52;;;;;;;;;13.25;12.25;;;;;;;;4995678;28;45336;-69
2021/10/18 14:33:17;;;;;;;;;16.00;15.25;;;;;;;;4996993;28;45479;-69
2021/10/18 14:35:43;;;;;;;;;19.75;17.50;;;;;;;;4997097;28;45449;-69
2021/10/18 14:38:08;;;;;;;;;13.75;13.00;;;;;;;;4996962;28;45370;-69
2021/10/18 14:40:33;;;;;;;;;31.50;28.50;;;;;;;;4996678;28;45395;-69
2021/10/18 14:42:58;;;;;;;;;16.00;15.25;;;;;;;;4995089;28;48488;-70
2021/10/18 14:45:23;;;;;;;;;17.25;14.50;;;;;;;;4996805;28;45335;-69
2021/10/18 14:47:49;;;;;;;;;13.00;13.00;;;;;;;;4996646;28;45333;-69
2021/10/18 14:50:14;;;;;;;;;16.00;14.25;;;;;;;;4996970;28;45486;-70
2021/10/18 14:52:40;;;;;;;;;14.50;12.50;;;;;;;;4996367;28;45774;-70
2021/10/18 14:55:07;;;;;;;;;16.25;15.75;;;;;;;;4996467;28;45361;-69
2021/10/18 14:57:32;;;;;;;;;13.75;13.00;;;;;;;;4996563;28;45206;-70
2021/10/18 14:59:58;;;;;;;;;12.75;11.00;;;;;;;;4996535;28;45289;-68
2021/10/18 15:02:25;;;;;;;;;14.25;13.50;;;;;;;;4996079;28;45434;-69
2021/10/18 15:04:51;;;;;;;;;14.25;13.75;;;;;;;;4994772;28;45277;-69
2021/10/18 15:07:18;;;;;;;;;15.25;13.50;;;;;;;;4996913;28;45332;-68
2021/10/18 15:09:43;;;;;;;;;12.00;10.00;;;;;;;;4995231;28;45548;-68
2021/10/18 15:12:08;;;;;;;;;8.50;8.50;;;;;;;;4995778;28;45548;-69
2021/10/18 15:14:33;;;;;;;;;11.25;11.00;;;;;;;;4996156;28;45344;-68
2021/10/18 15:16:59;;;;;;;;;12.00;11.00;;;;;;;;4995021;28;45458;-70
2021/10/18 15:19:24;;;;;;;;;12.75;12.75;;;;;;;;4996551;28;45520;-70